Time;durP1;ratioP1;P1;durP2;ratioP2;P2;SDS_P1;SDS_P2;PMS_P1;PMS_P2;Temp;Humidity;BMP_temperature;BMP_pressure;BME280_temperature;BME280_humidity;BME280_pressure;Samples;Min_cycle;Max_cycle;Signal;HPM_P1;HPM_P2
2021/11/22 00:00:13;;;;;;;1.20;1.20;;;;;;;1.27;69.18;101856.22;6143128;29;20215;-74
2021/11/22 00:03:28;;;;;;;1.00;1.00;;;;;;;1.49;68.41;101855.25;6141228;29;20515;-74
2021/11/22 00:06:36;;;;;;;1.00;1.00;;;;;;;1.46;68.19;101866.25;6142266;29;20200;-74
2021/11/22 00:09:40;;;;;;;1.07;0.90;;;;;;;1.37;68.84;101856.28;6142011;29;20369;-74
2021/11/22 00:12:45;;;;;;;2.20;1.00;;;;;;;1.20;68.61;101872.06;6142922;29;20196;-75
2021/11/22 00:15:51;;;;;;;0.90;0.90;;;;;;;1.21;67.74;101863.00;6143104;29;20247;-76
2021/11/22 00:18:56;;;;;;;1.03;1.03;;;;;;;1.25;67.69;101869.81;6141391;29;20254;-75
2021/11/22 00:22:03;;;;;;;1.00;1.00;;;;;;;1.33;66.93;101876.38;6142682;29;20223;-74
2021/11/22 00:25:08;;;;;;;1.03;1.03;;;;;;;1.12;66.58;101879.06;6142377;29;20195;-74
2021/11/22 00:28:15;;;;;;;1.00;1.00;;;;;;;1.20;67.17;101876.56;6142344;29;20194;-74
2021/11/22 00:31:46;;;;;;;3.17;1.00;;;;;;;1.28;66.38;101872.22;6140034;29;20413;-74
2021/11/22 00:34:57;;;;;;;2.13;1.17;;;;;;;1.32;66.75;101880.03;6139822;29;20525;-74
2021/11/22 00:38:13;;;;;;;0.90;0.90;;;;;;;1.27;66.67;101872.38;6124389;29;20213;-74
2021/11/22 00:41:18;;;;;;;1.00;1.00;;;;;;;1.33;66.22;101881.75;6141471;29;20219;-74
2021/11/22 00:44:22;;;;;;;1.10;1.10;;;;;;;1.35;66.13;101879.78;6141044;29;20204;-74
2021/11/22 00:47:26;;;;;;;5.40;1.03;;;;;;;1.12;66.66;101879.06;6141834;29;20194;-74
2021/11/22 00:50:34;;;;;;;1.10;1.10;;;;;;;1.20;66.81;101885.50;6140603;29;20482;-74
2021/11/22 00:53:39;;;;;;;1.00;1.00;;;;;;;1.25;66.73;101885.97;6140699;29;20479;-74
2021/11/22 00:56:43;;;;;;;1.30;1.20;;;;;;;1.16;66.97;101886.72;6141634;29;20251;-74
2021/11/22 00:59:48;;;;;;;0.93;0.93;;;;;;;1.17;66.89;101883.06;6141866;29;20189;-74
2021/11/22 01:02:52;;;;;;;1.80;0.90;;;;;;;1.06;66.38;101893.88;6140686;29;20211;-74
2021/11/22 01:05:56;;;;;;;1.00;1.00;;;;;;;1.13;66.25;101892.34;6140992;29;20242;-74
2021/11/22 01:09:02;;;;;;;1.30;1.07;;;;;;;0.96;66.31;101901.00;6141819;29;20246;-74
2021/11/22 01:12:07;;;;;;;1.13;1.13;;;;;;;1.03;66.58;101896.81;6142117;29;20192;-74
2021/11/22 01:15:14;;;;;;;0.87;0.87;;;;;;;0.92;66.39;101909.47;6146748;29;20198;-74
2021/11/22 01:18:21;;;;;;;1.03;1.03;;;;;;;0.92;66.71;101899.56;6145964;29;20482;-74
2021/11/22 01:21:25;;;;;;;2.20;1.17;;;;;;;0.95;66.68;101901.16;6147270;29;20197;-74
2021/11/22 01:24:32;;;;;;;1.00;1.00;;;;;;;0.81;67.13;101891.56;6146220;29;20192;-74
2021/11/22 01:27:37;;;;;;;1.03;0.93;;;;;;;0.97;67.04;101904.56;6146745;29;20220;-74
2021/11/22 01:30:42;;;;;;;1.00;1.00;;;;;;;1.01;67.02;101903.28;6146283;29;20236;-74
2021/11/22 01:33:46;;;;;;;0.90;0.90;;;;;;;1.11;67.08;101902.41;6146400;29;20191;-74
2021/11/22 01:36:50;;;;;;;1.00;1.00;;;;;;;0.97;67.71;101886.59;6145316;29;20246;-74
2021/11/22 01:39:57;;;;;;;3.37;1.00;;;;;;;0.95;66.92;101899.28;6145990;29;20258;-74
2021/11/22 01:43:01;;;;;;;1.20;1.00;;;;;;;1.10;66.85;101907.91;6144778;29;20442;-74
2021/11/22 01:46:06;;;;;;;0.97;0.97;;;;;;;1.00;67.19;101897.06;6145457;29;20211;-76
2021/11/22 01:49:10;;;;;;;2.57;1.00;;;;;;;0.77;66.39;101906.19;6145606;29;20215;-74
2021/11/22 01:52:16;;;;;;;0.90;0.90;;;;;;;0.98;66.40;101915.16;6145378;29;20199;-74
2021/11/22 01:55:27;;;;;;;1.23;0.90;;;;;;;0.93;67.02;101906.63;6145331;29;20271;-74
2021/11/22 01:58:31;;;;;;;1.00;1.00;;;;;;;1.04;67.04;101914.66;6145447;29;20222;-74
2021/11/22 02:01:35;;;;;;;2.00;1.10;;;;;;;1.16;66.16;101912.75;6144881;29;20191;-74
2021/11/22 02:04:40;;;;;;;0.93;0.93;;;;;;;1.13;66.77;101919.25;6144280;29;20306;-75
2021/11/22 02:07:44;;;;;;;0.90;0.90;;;;;;;1.24;65.99;101916.50;6144132;29;20429;-74
2021/11/22 02:10:51;;;;;;;0.90;0.90;;;;;;;1.14;66.76;101914.72;6144649;29;20191;-74
2021/11/22 02:13:56;;;;;;;3.60;1.00;;;;;;;1.19;67.04;101913.34;6145099;29;20195;-74
2021/11/22 02:17:01;;;;;;;0.90;0.90;;;;;;;1.10;67.99;101918.66;6144628;29;20214;-74
2021/11/22 02:20:10;;;;;;;1.00;1.00;;;;;;;1.14;68.54;101923.66;6143896;29;20224;-74
2021/11/22 02:23:17;;;;;;;1.70;1.03;;;;;;;1.20;68.00;101925.81;6143511;29;20199;-75
2021/11/22 02:26:21;;;;;;;0.87;0.87;;;;;;;1.12;68.65;101933.69;6143542;29;20196;-75
2021/11/22 02:29:26;;;;;;;1.00;1.00;;;;;;;1.04;68.70;101930.78;6143375;29;20390;-74
2021/11/22 02:32:30;;;;;;;1.33;1.00;;;;;;;1.16;67.79;101921.66;6143247;29;20223;-74
2021/11/22 02:35:39;;;;;;;0.80;0.80;;;;;;;1.14;67.56;101920.97;6144044;29;20238;-74
2021/11/22 02:39:00;;;;;;;3.30;0.83;;;;;;;0.92;68.52;101915.69;6144076;29;20267;-74
2021/11/22 02:42:11;;;;;;;1.03;0.93;;;;;;;1.05;68.09;101921.72;6143891;29;20198;-74
2021/11/22 02:45:18;;;;;;;0.87;0.87;;;;;;;0.99;67.68;101911.50;6143124;29;20201;-74
2021/11/22 02:48:22;;;;;;;0.93;0.93;;;;;;;1.05;68.20;101907.44;6142535;29;20196;-74
2021/11/22 02:51:28;;;;;;;1.00;1.00;;;;;;;0.86;68.58;101900.09;6142550;29;20419;-74
2021/11/22 02:54:32;;;;;;;0.90;0.90;;;;;;;0.93;69.12;101908.47;6142890;29;20231;-74
2021/11/22 02:57:38;;;;;;;1.13;0.93;;;;;;;0.78;68.11;101907.91;6142376;29;20417;-74
2021/11/22 03:00:42;;;;;;;3.20;1.20;;;;;;;0.43;67.94;101902.81;6143732;29;20210;-74
2021/11/22 03:03:46;;;;;;;1.10;1.00;;;;;;;0.57;67.91;101909.69;6143086;29;20239;-74
2021/11/22 03:06:52;;;;;;;1.30;1.00;;;;;;;0.52;67.95;101891.28;6142613;29;20202;-74
2021/11/22 03:09:56;;;;;;;1.10;1.10;;;;;;;0.62;67.67;101896.75;6143406;29;20214;-74
2021/11/22 03:13:01;;;;;;;0.93;0.93;;;;;;;0.60;66.76;101887.97;6143315;29;20192;-74
2021/11/22 03:16:06;;;;;;;1.03;1.03;;;;;;;0.65;66.95;101891.13;6143093;29;20195;-74
2021/11/22 03:19:11;;;;;;;1.07;1.07;;;;;;;0.61;67.14;101897.75;6141826;29;20327;-74
2021/11/22 03:22:17;;;;;;;0.90;0.90;;;;;;;0.62;67.14;101908.34;6141869;29;20413;-73
2021/11/22 03:25:21;;;;;;;1.03;1.03;;;;;;;0.59;66.41;101902.41;6141696;29;20449;-74
2021/11/22 03:28:27;;;;;;;1.00;1.00;;;;;;;0.55;66.57;101906.28;6142561;29;20234;-74
2021/11/22 03:31:33;;;;;;;0.93;0.93;;;;;;;0.59;66.94;101913.13;6142674;29;20310;-74
2021/11/22 03:34:37;;;;;;;1.00;1.00;;;;;;;0.39;67.29;101906.69;6141643;29;20421;-74
2021/11/22 03:37:43;;;;;;;1.00;1.00;;;;;;;0.37;67.34;101913.16;6141854;29;20226;-74
2021/11/22 03:40:49;;;;;;;1.53;1.20;;;;;;;0.32;67.73;101915.38;6141475;29;20196;-74
2021/11/22 03:43:57;;;;;;;1.80;1.00;;;;;;;0.37;67.94;101910.47;6142464;29;20258;-74
2021/11/22 03:47:01;;;;;;;1.10;1.10;;;;;;;0.34;68.03;101908.03;6142205;29;20254;-74
2021/11/22 03:50:07;;;;;;;1.73;1.00;;;;;;;0.36;67.95;101906.94;6141429;29;20474;-74
2021/11/22 03:53:16;;;;;;;4.30;1.10;;;;;;;0.55;67.54;101914.34;6142351;29;20197;-74
2021/11/22 03:56:21;;;;;;;1.00;1.00;;;;;;;0.58;68.32;101906.03;6142537;29;20191;-74
2021/11/22 03:59:25;;;;;;;1.00;1.00;;;;;;;0.77;67.88;101900.84;6140967;29;20281;-74
2021/11/22 04:02:29;;;;;;;1.00;1.00;;;;;;;0.80;67.23;101895.22;6141919;29;20226;-75
2021/11/22 04:05:34;;;;;;;1.40;0.97;;;;;;;0.75;67.59;101892.06;6141940;29;20243;-74
2021/11/22 04:08:40;;;;;;;0.80;0.80;;;;;;;0.92;67.27;101891.50;6142402;29;20201;-74
2021/11/22 04:11:44;;;;;;;0.97;0.97;;;;;;;1.05;66.71;101889.47;6142331;29;20195;-74
2021/11/22 04:14:48;;;;;;;1.10;1.03;;;;;;;0.99;66.91;101906.13;6140948;29;20491;-74
2021/11/22 04:17:53;;;;;;;0.90;0.90;;;;;;;0.96;67.28;101898.31;6142077;29;20222;-74
2021/11/22 04:20:57;;;;;;;1.47;1.20;;;;;;;0.83;67.33;101911.06;6142132;29;20200;-76
2021/11/22 04:24:03;;;;;;;3.70;1.00;;;;;;;0.89;67.39;101899.81;6142065;29;20191;-74
2021/11/22 04:27:10;;;;;;;1.47;1.03;;;;;;;0.81;67.84;101918.41;6142115;29;20190;-74
2021/11/22 04:30:14;;;;;;;1.13;1.13;;;;;;;0.69;67.67;101903.34;6141687;29;20269;-75
2021/11/22 04:33:19;;;;;;;0.90;0.90;;;;;;;0.73;68.21;101907.44;6141803;29;20191;-74
2021/11/22 04:36:23;;;;;;;1.20;1.10;;;;;;;0.53;68.70;101913.63;6140832;29;20501;-74
2021/11/22 04:39:29;;;;;;;1.17;1.07;;;;;;;0.55;68.32;101903.59;6140680;29;20450;-75
2021/11/22 04:42:34;;;;;;;5.60;1.23;;;;;;;0.77;67.12;101906.19;6141735;29;20191;-74
2021/11/22 04:45:39;;;;;;;1.20;1.10;;;;;;;0.56;68.33;101903.50;6140925;29;20446;-74
2021/11/22 04:48:43;;;;;;;0.90;0.90;;;;;;;0.58;68.03;101901.53;6143977;29;20195;-75
2021/11/22 04:51:47;;;;;;;1.03;0.90;;;;;;;0.63;67.51;101901.16;6146498;29;20262;-74
2021/11/22 04:54:53;;;;;;;1.00;1.00;;;;;;;0.55;67.73;101911.66;6146372;29;20191;-75
2021/11/22 04:57:58;;;;;;;1.00;1.00;;;;;;;0.52;67.60;101901.16;6146478;29;20217;-75
2021/11/22 05:01:02;;;;;;;0.97;0.97;;;;;;;0.72;66.72;101895.00;6144983;29;20538;-74
2021/11/22 05:04:08;;;;;;;2.47;1.10;;;;;;;0.78;66.36;101902.56;6145411;29;20236;-74
2021/11/22 05:07:13;;;;;;;2.00;1.23;;;;;;;0.74;66.58;101895.75;6145108;29;20474;-74
2021/11/22 05:10:21;;;;;;;0.97;0.97;;;;;;;0.71;66.63;101893.31;6146258;29;20211;-74
2021/11/22 05:13:26;;;;;;;1.70;1.03;;;;;;;0.66;66.80;101895.53;6144908;29;20191;-76
2021/11/22 05:16:30;;;;;;;3.67;1.60;;;;;;;0.62;66.79;101907.47;6145610;29;20239;-75
2021/11/22 05:19:35;;;;;;;2.83;1.27;;;;;;;0.68;66.46;101898.94;6144537;29;20218;-76
2021/11/22 05:22:39;;;;;;;3.60;1.30;;;;;;;0.67;66.13;101891.84;6145364;29;20209;-75
2021/11/22 05:25:45;;;;;;;3.20;1.13;;;;;;;0.22;67.56;101903.69;6145616;29;20199;-75
2021/11/22 05:28:49;;;;;;;2.60;1.30;;;;;;;0.09;68.64;101908.34;6145334;29;20194;-76
2021/11/22 05:31:54;;;;;;;1.37;1.30;;;;;;;0.03;69.06;101914.22;6145173;29;20198;-76
2021/11/22 05:34:58;;;;;;;1.80;1.00;;;;;;;0.22;68.20;101911.75;6145542;29;20263;-76
2021/11/22 05:38:03;;;;;;;6.97;1.33;;;;;;;0.04;69.00;101915.91;6143999;29;20561;-75
2021/11/22 05:41:10;;;;;;;1.20;1.20;;;;;;;0.18;69.09;101919.16;6144572;29;20230;-75
2021/11/22 05:44:15;;;;;;;2.20;1.97;;;;;;;0.07;69.67;101915.66;6143957;29;20191;-75
2021/11/22 05:47:19;;;;;;;1.30;1.20;;;;;;;-0.02;70.01;101928.84;6144271;29;20198;-76
2021/11/22 05:50:24;;;;;;;2.03;1.40;;;;;;;0.08;70.60;101917.38;6143737;29;20198;-75
2021/11/22 05:53:33;;;;;;;1.40;1.30;;;;;;;0.16;70.51;101909.53;6144996;29;20192;-76
2021/11/22 05:56:40;;;;;;;1.43;1.40;;;;;;;0.12;70.92;101913.47;6144662;29;20238;-75
2021/11/22 05:59:44;;;;;;;4.53;1.20;;;;;;;-0.08;71.52;101915.91;6143800;29;20222;-75
2021/11/22 06:02:49;;;;;;;1.30;1.20;;;;;;;-0.10;72.99;101915.19;6143568;29;20237;-75
2021/11/22 06:05:53;;;;;;;1.00;1.00;;;;;;;0.10;72.37;101920.78;6144043;29;20239;-75
2021/11/22 06:08:57;;;;;;;1.03;1.00;;;;;;;0.24;71.34;101913.31;6144236;29;20206;-76
2021/11/22 06:12:03;;;;;;;2.20;1.50;;;;;;;0.39;70.71;101916.56;6144177;29;20222;-75
2021/11/22 06:15:09;;;;;;;1.27;1.13;;;;;;;0.46;70.08;101917.81;6143104;29;20379;-75
2021/11/22 06:18:21;;;;;;;4.63;1.40;;;;;;;0.51;69.71;101910.22;6142985;29;20190;-76
2021/11/22 06:21:25;;;;;;;1.17;1.17;;;;;;;0.32;70.85;101915.38;6144015;29;20197;-75
2021/11/22 06:24:29;;;;;;;3.10;1.10;;;;;;;0.01;71.72;101917.00;6144128;29;20313;-75
2021/11/22 06:27:35;;;;;;;3.80;1.30;;;;;;;0.07;72.26;101915.66;6143472;29;20220;-75
2021/11/22 06:30:40;;;;;;;1.30;1.30;;;;;;;-0.13;72.10;101911.91;6142765;29;20257;-75
2021/11/22 06:33:45;;;;;;;7.40;1.60;;;;;;;-0.10;72.46;101915.19;6143034;29;20194;-75
2021/11/22 06:36:49;;;;;;;1.47;1.40;;;;;;;-0.25;72.52;101921.75;6143822;29;20273;-75
2021/11/22 06:39:54;;;;;;;1.50;1.50;;;;;;;-0.17;71.95;101919.34;6143521;29;20282;-76
2021/11/22 06:42:59;;;;;;;5.63;1.40;;;;;;;-0.43;72.53;101916.97;6143180;29;20270;-76
2021/11/22 06:46:04;;;;;;;1.57;1.50;;;;;;;-0.42;72.52;101924.94;6143598;29;20191;-76
2021/11/22 06:49:09;;;;;;;1.90;1.80;;;;;;;-0.25;71.47;101921.75;6143235;29;20225;-75
2021/11/22 06:52:15;;;;;;;1.43;1.43;;;;;;;-0.42;72.26;101919.56;6143752;29;20188;-75
2021/11/22 06:55:20;;;;;;;1.50;1.50;;;;;;;-0.30;71.41;101921.28;6143516;29;20233;-76
2021/11/22 06:58:26;;;;;;;3.40;2.40;;;;;;;-0.46;71.31;101926.13;6142828;29;20211;-75
2021/11/22 07:01:30;;;;;;;2.10;1.50;;;;;;;-0.51;71.61;101940.88;6143140;29;20268;-74
2021/11/22 07:04:34;;;;;;;1.80;1.70;;;;;;;-0.31;71.70;101943.69;6142003;29;20568;-75
2021/11/22 07:07:38;;;;;;;2.97;1.70;;;;;;;-0.43;71.92;101933.94;6143097;29;20195;-74
2021/11/22 07:10:43;;;;;;;5.50;1.70;;;;;;;-0.41;71.22;101941.88;6142687;29;20413;-74
2021/11/22 07:13:49;;;;;;;6.43;1.80;;;;;;;-0.54;71.13;101936.63;6142494;29;20190;-74
2021/11/22 07:16:53;;;;;;;1.70;1.60;;;;;;;-0.44;70.56;101926.88;6141649;29;20501;-75
2021/11/22 07:19:58;;;;;;;3.50;2.20;;;;;;;-0.37;70.74;101937.97;6142171;29;20219;-74
2021/11/22 07:23:03;;;;;;;1.70;1.60;;;;;;;-0.21;70.65;101944.69;6142555;29;20189;-73
2021/11/22 07:26:10;;;;;;;2.60;1.50;;;;;;;-0.71;71.92;101945.09;6142915;29;20194;-74
2021/11/22 07:29:16;;;;;;;1.80;1.70;;;;;;;-0.74;71.76;101950.69;6141425;29;20528;-73
2021/11/22 07:32:21;;;;;;;2.10;1.47;;;;;;;-0.56;71.26;101943.91;6142360;29;20188;-73
2021/11/22 07:35:25;;;;;;;1.90;1.50;;;;;;;-0.53;71.30;101943.66;6142383;29;20268;-73
2021/11/22 07:38:29;;;;;;;3.20;1.70;;;;;;;-0.66;71.54;101949.13;6141114;29;20516;-74
2021/11/22 07:41:33;;;;;;;1.50;1.50;;;;;;;-0.59;71.71;101938.78;6142330;29;20215;-72
2021/11/22 07:44:40;;;;;;;1.50;1.50;;;;;;;-0.61;71.42;101946.09;6142448;29;20198;-73
2021/11/22 07:47:45;;;;;;;1.63;1.60;;;;;;;-0.53;70.39;101937.44;6141288;29;20250;-73
2021/11/22 07:50:49;;;;;;;2.30;2.10;;;;;;;-0.33;70.16;101929.56;6141883;29;20193;-74
2021/11/22 07:54:13;;;;;;;3.03;2.30;;;;;;;-0.27;69.65;101934.44;6140992;29;20196;-74
2021/11/22 07:57:18;;;;;;;4.00;1.73;;;;;;;-0.39;69.80;101924.69;6142149;29;20195;-74
2021/11/22 08:00:25;;;;;;;2.73;2.30;;;;;;;-0.20;69.40;101927.63;6141716;29;20278;-74
2021/11/22 08:03:30;;;;;;;1.37;1.37;;;;;;;-0.11;68.87;101926.91;6141746;29;20254;-74
2021/11/22 08:06:34;;;;;;;4.27;1.63;;;;;;;-0.17;69.45;101930.06;6141247;29;20213;-74
2021/11/22 08:09:43;;;;;;;1.93;1.93;;;;;;;-0.40;70.37;101933.69;6141428;29;20192;-74
2021/11/22 08:12:48;;;;;;;1.73;1.63;;;;;;;-0.34;70.64;101938.59;6141018;29;20497;-74
2021/11/22 08:15:53;;;;;;;1.60;1.50;;;;;;;-0.37;70.24;101937.97;6140536;29;20198;-74
2021/11/22 08:18:58;;;;;;;3.20;1.43;;;;;;;-0.18;69.66;101933.72;6140558;29;20481;-74
2021/11/22 08:22:03;;;;;;;1.40;1.40;;;;;;;0.09;68.17;101932.50;6141776;29;20213;-74
2021/11/22 08:25:10;;;;;;;2.13;1.53;;;;;;;0.06;68.22;101938.09;6145128;29;20212;-73
2021/11/22 08:28:15;;;;;;;2.57;1.40;;;;;;;-0.03;68.59;101932.47;6145327;29;20381;-74
2021/11/22 08:31:20;;;;;;;2.97;1.77;;;;;;;0.09;68.52;101935.19;6145780;29;20193;-74
2021/11/22 08:34:26;;;;;;;1.30;1.30;;;;;;;-0.06;68.84;101938.13;6145226;29;20531;-74
2021/11/22 08:37:31;;;;;;;6.13;1.60;;;;;;;-0.31;69.87;101938.31;6146414;29;20193;-74
2021/11/22 08:40:36;;;;;;;3.07;1.67;;;;;;;-0.07;68.77;101928.34;6146148;29;20283;-74
2021/11/22 08:43:40;;;;;;;6.17;1.30;;;;;;;0.00;68.56;101926.88;6145028;29;20535;-74
2021/11/22 08:46:47;;;;;;;2.60;1.17;;;;;;;0.07;68.10;101937.13;6146001;29;20200;-73
2021/11/22 08:49:51;;;;;;;1.27;1.23;;;;;;;-0.03;68.52;101927.13;6144812;29;20189;-74
2021/11/22 08:52:56;;;;;;;2.13;1.50;;;;;;;-0.01;68.75;101927.88;6145817;29;20225;-74
2021/11/22 08:56:00;;;;;;;2.90;1.53;;;;;;;0.13;68.73;101920.56;6145604;29;20228;-74
2021/11/22 08:59:05;;;;;;;1.27;1.27;;;;;;;0.13;68.57;101925.91;6145935;29;20194;-73
2021/11/22 09:02:12;;;;;;;2.23;1.37;;;;;;;0.19;68.13;101937.00;6145359;29;20214;-74
2021/11/22 09:05:17;;;;;;;2.70;1.43;;;;;;;0.03;68.79;101920.41;6145157;29;20295;-73
2021/11/22 09:08:21;;;;;;;3.60;1.20;;;;;;;0.03;69.04;101933.81;6144528;29;20252;-74
2021/11/22 09:11:26;;;;;;;1.10;1.10;;;;;;;0.17;69.21;101922.84;6144762;29;20199;-74
2021/11/22 09:14:30;;;;;;;1.50;1.40;;;;;;;0.19;69.07;101930.78;6145749;29;20277;-73
2021/11/22 09:17:36;;;;;;;1.50;1.50;;;;;;;0.26;68.74;101921.25;6145372;29;20285;-73
2021/11/22 09:20:42;;;;;;;1.30;1.20;;;;;;;0.32;68.42;101912.69;6144314;29;20444;-73
2021/11/22 09:23:47;;;;;;;3.53;1.30;;;;;;;0.30;68.29;101901.25;6145062;29;20198;-73
2021/11/22 09:26:52;;;;;;;1.40;1.30;;;;;;;0.35;68.53;101905.25;6144128;29;20428;-73
2021/11/22 09:29:56;;;;;;;2.90;1.30;;;;;;;0.36;68.36;101900.75;6145388;29;20194;-73
2021/11/22 09:33:03;;;;;;;2.10;1.33;;;;;;;0.41;68.15;101898.53;6143954;29;20499;-73
2021/11/22 09:36:11;;;;;;;2.77;1.30;;;;;;;0.39;67.85;101884.38;6145278;29;20197;-73
2021/11/22 09:39:17;;;;;;;2.50;1.50;;;;;;;0.44;67.99;101892.88;6144655;29;20256;-73
2021/11/22 09:42:21;;;;;;;1.47;1.40;;;;;;;0.56;67.68;101871.28;6144665;29;20218;-74
2021/11/22 09:45:27;;;;;;;2.47;1.20;;;;;;;0.50;67.52;101873.59;6144628;29;20197;-75
2021/11/22 09:48:33;;;;;;;4.03;1.50;;;;;;;0.53;67.55;101876.03;6144790;29;20198;-74
2021/11/22 09:51:37;;;;;;;6.23;1.30;;;;;;;0.58;67.55;101872.00;6144990;29;20242;-73
2021/11/22 09:54:45;;;;;;;2.93;1.30;;;;;;;0.60;67.63;101879.91;6144144;29;20197;-73
2021/11/22 09:57:50;;;;;;;1.30;1.30;;;;;;;0.59;67.62;101864.78;6144794;29;20222;-74
2021/11/22 10:01:01;;;;;;;2.73;1.60;;;;;;;0.60;67.02;101866.47;6143649;29;20218;-73
2021/11/22 10:04:09;;;;;;;4.97;1.40;;;;;;;0.66;67.22;101865.97;6144307;29;20302;-75
2021/11/22 10:07:16;;;;;;;6.40;1.53;;;;;;;0.78;67.49;101864.94;6143267;29;20362;-75
2021/11/22 10:10:20;;;;;;;2.33;1.40;;;;;;;0.63;67.78;101860.84;6143323;29;20249;-74
2021/11/22 10:13:28;;;;;;;3.50;1.13;;;;;;;0.50;68.30;101868.22;6143963;29;20193;-74
2021/11/22 10:16:32;;;;;;;1.50;1.40;;;;;;;0.62;68.43;101864.50;6144010;29;20190;-74
2021/11/22 10:19:39;;;;;;;1.20;1.20;;;;;;;0.50;68.64;101870.91;6143757;29;20189;-74
2021/11/22 10:22:47;;;;;;;1.40;1.40;;;;;;;0.87;67.58;101869.56;6142974;29;20442;-74
2021/11/22 10:25:54;;;;;;;1.30;1.20;;;;;;;0.84;67.97;101864.44;6144222;29;20192;-73
2021/11/22 10:28:58;;;;;;;4.00;1.47;;;;;;;0.68;68.18;101853.28;6142592;29;20214;-73
2021/11/22 10:32:06;;;;;;;2.03;1.40;;;;;;;0.80;68.01;101849.53;6143834;29;20306;-74
2021/11/22 10:35:18;;;;;;;5.73;1.53;;;;;;;0.91;67.55;101833.38;6143840;29;20188;-73
2021/11/22 10:38:25;;;;;;;1.83;1.20;;;;;;;0.95;67.47;101834.78;6142470;29;20443;-73
2021/11/22 10:41:32;;;;;;;4.00;1.40;;;;;;;0.88;67.20;101832.75;6142436;29;20226;-73
2021/11/22 10:44:36;;;;;;;1.40;1.40;;;;;;;1.07;67.12;101831.09;6143552;29;20212;-73
2021/11/22 10:47:54;;;;;;;4.57;1.50;;;;;;;1.30;66.07;101836.28;6143018;29;20191;-74
2021/11/22 10:51:12;;;;;;;6.97;1.20;;;;;;;1.10;66.60;101836.19;6142564;29;20222;-74
2021/11/22 10:54:18;;;;;;;1.67;1.20;;;;;;;1.16;67.10;101832.97;6143156;29;20195;-74
2021/11/22 10:57:23;;;;;;;1.30;1.30;;;;;;;1.15;66.62;101825.91;6142460;29;20455;-74
2021/11/22 11:00:29;;;;;;;8.80;1.67;;;;;;;1.16;66.85;101822.22;6143190;29;20260;-74
2021/11/22 11:03:34;;;;;;;3.60;1.20;;;;;;;1.20;66.78;101826.34;6142467;29;20313;-74
2021/11/22 11:06:42;;;;;;;7.67;1.20;;;;;;;1.41;66.51;101820.09;6142942;29;20189;-74
2021/11/22 11:09:53;;;;;;;52.93;17.00;;;;;;;1.38;65.86;101814.97;6142615;29;20194;-73
2021/11/22 11:12:58;;;;;;;2.40;2.30;;;;;;;1.31;66.79;101813.81;6141758;29;20202;-74
2021/11/22 11:16:06;;;;;;;1.77;1.70;;;;;;;1.30;66.38;101795.97;6142715;29;20211;-74
2021/11/22 11:19:12;;;;;;;1.30;1.30;;;;;;;1.39;66.26;101797.88;6141469;29;20502;-75
2021/11/22 11:22:18;;;;;;;1.50;1.43;;;;;;;1.60;65.33;101793.25;6141516;29;20530;-73
2021/11/22 11:25:25;;;;;;;10.83;1.60;;;;;;;1.51;65.69;101786.88;6126227;29;20212;-75
2021/11/22 11:28:49;;;;;;;1.40;1.40;;;;;;;1.57;66.00;101777.38;6142424;29;20196;-74
2021/11/22 11:31:53;;;;;;;1.37;1.33;;;;;;;1.56;65.67;101781.94;6142070;29;20192;-73
2021/11/22 11:34:58;;;;;;;2.40;1.20;;;;;;;1.71;65.06;101763.56;6142576;29;20227;-74
2021/11/22 11:38:16;;;;;;;1.63;1.17;;;;;;;1.66;65.45;101765.81;6141798;29;20193;-73
2021/11/22 11:41:35;;;;;;;3.30;1.33;;;;;;;1.64;66.25;101762.44;6142296;29;20224;-73
2021/11/22 11:44:54;;;;;;;3.43;1.40;;;;;;;1.63;65.29;101755.34;6142347;29;20192;-74
2021/11/22 11:48:07;;;;;;;1.47;1.37;;;;;;;1.59;66.37;101753.91;6141959;29;20196;-74
2021/11/22 11:51:14;;;;;;;4.67;1.20;;;;;;;1.63;65.74;101749.97;6141277;29;20189;-74
2021/11/22 11:54:42;;;;;;;4.00;1.20;;;;;;;1.81;65.69;101737.53;6140933;29;20412;-74
2021/11/22 11:57:47;;;;;;;1.23;1.13;;;;;;;1.76;66.57;101734.41;6140207;29;20212;-74
2021/11/22 12:00:54;;;;;;;1.07;1.00;;;;;;;1.81;65.38;101727.63;6140755;29;20263;-74
2021/11/22 12:04:07;;;;;;;2.63;1.27;;;;;;;1.87;65.19;101726.22;6141189;29;20325;-74
2021/11/22 12:07:23;;;;;;;5.47;1.47;;;;;;;1.87;65.87;101720.84;6141370;29;20192;-74
2021/11/22 12:10:29;;;;;;;1.37;1.37;;;;;;;1.79;66.14;101715.31;6141352;29;20197;-74
2021/11/22 12:13:47;;;;;;;2.00;1.37;;;;;;;1.97;66.05;101718.16;6140977;29;20227;-74
2021/11/22 12:16:51;;;;;;;7.90;2.10;;;;;;;1.84;65.80;101707.66;6141688;29;20220;-74
2021/11/22 12:19:56;;;;;;;3.60;1.37;;;;;;;1.97;65.68;101705.56;6140959;29;20245;-74
2021/11/22 12:23:02;;;;;;;9.27;1.70;;;;;;;2.00;65.98;101699.03;6141527;29;20223;-73
2021/11/22 12:26:12;;;;;;;13.03;1.73;;;;;;;1.96;66.00;101681.47;6141207;29;20190;-74
2021/11/22 12:29:30;;;;;;;6.83;1.80;;;;;;;2.06;65.70;101675.09;6141425;29;20195;-74
2021/11/22 12:32:36;;;;;;;1.80;1.70;;;;;;;2.04;66.32;101679.78;6141303;29;20226;-73
2021/11/22 12:35:56;;;;;;;5.60;1.53;;;;;;;1.86;67.40;101654.56;6140098;29;20503;-73
2021/11/22 12:39:07;;;;;;;2.07;1.50;;;;;;;2.06;66.27;101645.47;6140156;29;20455;-73
2021/11/22 12:42:46;;;;;;;6.53;1.40;;;;;;;2.10;66.85;101646.91;6140099;29;20243;-73
2021/11/22 12:45:57;;;;;;;2.00;1.77;;;;;;;2.16;65.64;101637.38;6141238;29;20261;-74
2021/11/22 12:49:01;;;;;;;2.73;1.30;;;;;;;2.26;65.79;101631.00;6141368;29;20192;-73
2021/11/22 12:52:18;;;;;;;2.63;1.10;;;;;;;2.19;65.06;101619.13;6140046;29;20358;-72
2021/11/22 12:55:23;;;;;;;1.87;1.30;;;;;;;2.26;64.88;101614.84;6141401;29;20188;-74
2021/11/22 12:58:30;;;;;;;1.40;1.40;;;;;;;2.20;65.41;101603.81;6140010;29;20481;-74
2021/11/22 13:01:35;;;;;;;3.40;1.30;;;;;;;2.14;65.72;101594.47;6140967;29;20254;-74
2021/11/22 13:04:43;;;;;;;5.43;1.30;;;;;;;2.17;65.29;101586.13;6140506;29;20293;-73
2021/11/22 13:07:48;;;;;;;3.23;1.40;;;;;;;2.12;65.40;101577.63;6139990;29;20191;-74
2021/11/22 13:10:54;;;;;;;2.17;1.30;;;;;;;2.10;65.09;101593.06;6144614;29;20210;-74
2021/11/22 13:14:06;;;;;;;3.33;1.33;;;;;;;2.05;65.56;101573.81;6145291;29;20192;-73
2021/11/22 13:17:11;;;;;;;2.13;1.20;;;;;;;2.14;65.70;101578.31;6145405;29;20190;-73
2021/11/22 13:20:16;;;;;;;1.20;1.20;;;;;;;2.21;65.18;101568.66;6144127;29;20377;-73
2021/11/22 13:23:23;;;;;;;2.03;1.77;;;;;;;2.06;65.67;101570.13;6145287;29;20223;-74
2021/11/22 13:26:29;;;;;;;5.57;1.70;;;;;;;2.14;65.68;101562.16;6143946;29;20354;-75
2021/11/22 13:29:37;;;;;;;3.37;1.50;;;;;;;2.34;64.90;101561.13;6143803;29;20384;-74
2021/11/22 13:32:41;;;;;;;3.43;1.40;;;;;;;2.23;66.05;101566.69;6143756;29;20431;-73
2021/11/22 13:35:46;;;;;;;4.20;1.50;;;;;;;2.18;66.08;101558.22;6143861;29;20388;-74
2021/11/22 13:38:50;;;;;;;6.90;1.63;;;;;;;2.29;66.23;101555.31;6144254;29;20189;-74
2021/11/22 13:42:00;;;;;;;4.23;1.57;;;;;;;2.16;66.44;101554.78;6144722;29;20256;-73
2021/11/22 13:45:06;;;;;;;2.83;1.70;;;;;;;2.08;66.43;101545.75;6144864;29;20222;-73
2021/11/22 13:48:13;;;;;;;3.87;1.60;;;;;;;2.23;66.43;101550.53;6143461;29;20190;-74
2021/11/22 13:51:21;;;;;;;5.40;1.60;;;;;;;2.41;65.74;101543.38;6144506;29;20236;-75
2021/11/22 13:54:28;;;;;;;2.70;1.77;;;;;;;2.23;66.12;101539.78;6143405;29;20479;-74
2021/11/22 13:57:32;;;;;;;14.83;2.10;;;;;;;2.35;66.10;101521.56;6144482;29;20196;-74
2021/11/22 14:00:37;;;;;;;5.13;1.67;;;;;;;2.32;66.66;101508.41;6144270;29;20225;-74
2021/11/22 14:03:43;;;;;;;1.33;1.23;;;;;;;2.17;67.00;101505.34;6143286;29;20326;-74
2021/11/22 14:06:48;;;;;;;2.53;1.37;;;;;;;2.22;67.23;101500.38;6143508;29;20358;-74
2021/11/22 14:09:55;;;;;;;1.60;1.27;;;;;;;2.38;66.87;101495.22;6144267;29;20257;-74
2021/11/22 14:13:10;;;;;;;2.97;1.70;;;;;;;2.32;67.17;101478.78;6144220;29;20226;-73
2021/11/22 14:16:21;;;;;;;3.17;1.63;;;;;;;2.23;67.69;101480.53;6144191;29;20197;-73
2021/11/22 14:19:27;;;;;;;2.90;1.33;;;;;;;2.21;67.47;101487.06;6143570;29;20199;-73
2021/11/22 14:22:39;;;;;;;1.20;1.20;;;;;;;2.25;67.67;101462.38;6143209;29;20222;-74
2021/11/22 14:25:43;;;;;;;2.37;1.30;;;;;;;2.42;67.29;101464.28;6144066;29;20216;-73
2021/11/22 14:28:48;;;;;;;2.67;1.40;;;;;;;2.31;67.87;101451.00;6142810;29;20497;-73
2021/11/22 14:31:57;;;;;;;1.83;1.67;;;;;;;2.33;68.32;101449.03;6142617;29;20243;-73
2021/11/22 14:35:12;;;;;;;3.63;1.30;;;;;;;2.12;69.12;101445.72;6143652;29;20192;-74